Time;durP1;ratioP1;P1;durP2;ratioP2;P2;SDS_P1;SDS_P2;PMS_P1;PMS_P2;Temp;Humidity;BMP_temperature;BMP_pressure;BME280_temperature;BME280_humidity;BME280_pressure;Samples;Min_cycle;Max_cycle;Signal;HPM_P1;HPM_P2
2023/10/06 00:01:39;;;;;;;14.23;4.82;;;;;;;21.77;52.54;101527.13;5008250;28;19918;-80
2023/10/06 00:04:38;;;;;;;9.98;4.50;;;;;;;21.77;53.42;101535.44;5005383;28;20049;-79
2023/10/06 00:07:32;;;;;;;7.05;2.40;;;;;;;21.80;54.50;101534.69;5008762;28;20049;-80
2023/10/06 00:10:31;;;;;;;8.13;2.88;;;;;;;21.83;55.00;101536.75;5006494;28;20049;-80
2023/10/06 00:13:33;;;;;;;8.88;4.30;;;;;;;21.84;54.52;101541.06;5003136;28;20057;-80
2023/10/06 00:16:28;;;;;;;8.70;3.25;;;;;;;21.86;55.12;101537.94;5007292;28;20049;-80
2023/10/06 00:19:31;;;;;;;6.82;3.28;;;;;;;21.84;54.91;101526.47;5003692;28;20080;-79
2023/10/06 00:22:26;;;;;;;12.20;5.20;;;;;;;21.78;53.94;101520.44;5007333;28;20041;-79
2023/10/06 00:25:24;;;;;;;8.02;4.90;;;;;;;21.75;54.20;101516.44;5005823;28;20138;-80
2023/10/06 00:28:22;;;;;;;9.93;4.80;;;;;;;21.73;54.58;101529.06;5006854;28;20049;-80
2023/10/06 00:31:14;;;;;;;11.70;5.40;;;;;;;21.73;54.68;101527.09;5019179;28;20049;-79
2023/10/06 00:34:08;;;;;;;8.30;3.45;;;;;;;21.73;55.17;101531.81;5003083;28;20045;-80
2023/10/06 00:37:06;;;;;;;9.00;3.33;;;;;;;21.74;55.56;101525.91;5003764;28;20401;-80
2023/10/06 00:40:08;;;;;;;6.57;3.78;;;;;;;21.75;55.64;101523.94;5018196;28;20050;-80
2023/10/06 00:43:00;;;;;;;8.18;3.00;;;;;;;21.72;55.55;101535.75;5020099;28;20049;-80
2023/10/06 00:46:00;;;;;;;7.13;3.85;;;;;;;21.75;55.29;101532.25;5006265;28;20049;-79
2023/10/06 00:48:56;;;;;;;7.68;3.80;;;;;;;21.77;55.72;101532.69;5002737;28;20045;-79
2023/10/06 00:51:50;;;;;;;7.43;3.88;;;;;;;21.75;55.95;101532.25;5006254;28;20045;-80
2023/10/06 00:54:47;;;;;;;9.55;3.78;;;;;;;21.76;55.94;101540.19;5003509;28;20053;-80
2023/10/06 00:57:45;;;;;;;9.30;3.60;;;;;;;21.77;55.65;101538.22;5019373;28;20049;-80
2023/10/06 01:00:40;;;;;;;8.90;4.38;;;;;;;21.75;55.82;101537.78;5005358;28;20057;-80
2023/10/06 01:03:38;;;;;;;12.57;5.35;;;;;;;21.73;55.89;101529.06;5021777;28;20045;-79
2023/10/06 01:06:38;;;;;;;9.02;5.45;;;;;;;21.71;55.52;101537.72;5019613;28;20049;-80
2023/10/06 01:09:33;;;;;;;10.38;4.78;;;;;;;21.70;56.02;101524.25;5015991;28;20041;-80
2023/10/06 01:12:27;;;;;;;9.15;4.57;;;;;;;21.71;55.97;101518.34;5019875;28;20065;-80
2023/10/06 01:15:21;;;;;;;6.13;3.38;;;;;;;21.71;55.85;101520.31;5017391;28;20045;-79
2023/10/06 01:18:21;;;;;;;9.27;3.92;;;;;;;21.67;56.12;101525.81;5005377;28;20049;-79
2023/10/06 01:21:20;;;;;;;7.15;3.90;;;;;;;21.68;56.14;101532.94;5005542;28;20041;-80
2023/10/06 01:24:15;;;;;;;11.70;4.82;;;;;;;21.68;56.42;101521.06;5016056;28;20053;-80
2023/10/06 01:27:09;;;;;;;7.40;4.47;;;;;;;21.68;55.99;101523.84;5007342;28;20795;-80
2023/10/06 01:33:23;;;;;;;11.80;5.22;;;;;;;21.65;55.94;101522.59;4999018;28;20458;-80
2023/10/06 01:36:21;;;;;;;9.13;5.55;;;;;;;21.62;55.48;101528.88;5017426;28;20054;-80
2023/10/06 01:39:20;;;;;;;13.35;5.53;;;;;;;21.61;56.01;101524.50;5002768;28;20046;-80
2023/10/06 01:42:17;;;;;;;9.32;5.35;;;;;;;21.59;56.23;101529.59;5003724;28;20053;-80
2023/10/06 01:45:16;;;;;;;8.40;4.55;;;;;;;21.61;56.35;101526.47;5016371;28;20058;-80
2023/10/06 01:51:09;;;;;;;11.50;5.10;;;;;;;21.59;56.20;101521.31;5002779;28;20049;-79
2023/10/06 01:54:05;;;;;;;9.63;5.28;;;;;;;21.59;56.58;101523.25;5007358;28;20057;-80
2023/10/06 01:56:57;;;;;;;9.70;4.45;;;;;;;21.57;56.40;101520.88;5004009;28;20041;-79
2023/10/06 01:59:51;;;;;;;13.23;5.65;;;;;;;21.56;56.56;101527.59;5021822;28;20053;-80
2023/10/06 02:02:46;;;;;;;8.18;5.32;;;;;;;21.55;56.27;101516.88;5001761;28;20050;-80
2023/10/06 02:05:44;;;;;;;8.07;4.90;;;;;;;21.54;56.52;101520.81;5016650;28;20045;-80
2023/10/06 02:08:38;;;;;;;8.27;5.03;;;;;;;21.54;56.44;101527.16;5005263;28;20050;-80
2023/10/06 02:11:33;;;;;;;7.00;4.95;;;;;;;21.53;56.66;101527.53;5003160;28;20053;-79
2023/10/06 02:14:28;;;;;;;9.20;4.57;;;;;;;21.53;56.73;101525.56;5014793;28;20049;-80
2023/10/06 02:17:22;;;;;;;6.82;5.03;;;;;;;21.51;56.78;101522.38;5004698;28;20053;-79
2023/10/06 02:23:19;;;;;;;6.77;4.53;;;;;;;21.50;56.75;101515.22;5001477;28;20057;-79
2023/10/06 02:26:13;;;;;;;6.72;4.68;;;;;;;21.51;56.75;101516.81;5003059;28;20061;-79
2023/10/06 02:29:12;;;;;;;9.50;5.15;;;;;;;21.50;56.82;101519.97;5016000;28;20049;-79
2023/10/06 02:32:09;;;;;;;11.35;5.32;;;;;;;21.49;56.85;101512.81;5001629;28;20354;-79
2023/10/06 02:35:04;;;;;;;8.88;5.10;;;;;;;21.47;56.99;101524.28;5002166;28;20058;-80
2023/10/06 02:38:05;;;;;;;7.82;4.70;;;;;;;21.45;57.22;101520.25;5018896;28;20045;-80
2023/10/06 02:40:59;;;;;;;9.27;5.47;;;;;;;21.44;57.29;101515.91;5005028;28;20049;-79
2023/10/06 02:43:55;;;;;;;9.32;5.10;;;;;;;21.44;57.37;101511.16;5005814;28;20096;-79
2023/10/06 02:46:49;;;;;;;11.38;7.13;;;;;;;21.42;57.17;101512.72;5008271;28;20053;-80
2023/10/06 02:49:51;;;;;;;10.50;5.38;;;;;;;21.42;56.94;101515.47;5018219;28;20078;-80
2023/10/06 02:52:50;;;;;;;14.25;7.72;;;;;;;21.38;56.44;101520.97;5005884;28;20045;-80
2023/10/06 02:55:48;;;;;;;14.98;9.27;;;;;;;21.33;56.50;101532.34;5005654;28;20061;-79
2023/10/06 02:58:42;;;;;;;10.60;5.45;;;;;;;21.29;57.19;101523.16;5005318;28;20053;-80
2023/10/06 03:01:38;;;;;;;7.45;5.38;;;;;;;21.30;57.43;101522.78;5006681;28;20126;-80
2023/10/06 03:04:35;;;;;;;6.45;4.75;;;;;;;21.31;57.60;101526.34;5004364;28;20050;-80
2023/10/06 03:07:31;;;;;;;9.95;5.18;;;;;;;21.32;57.39;101522.44;5003103;28;20038;-80
2023/10/06 03:10:30;;;;;;;8.65;5.10;;;;;;;21.32;57.83;101522.44;5007519;28;20059;-80
2023/10/06 03:13:38;;;;;;;8.85;5.95;;;;;;;21.30;57.37;101521.97;4988916;28;20053;-80
2023/10/06 03:16:33;;;;;;;8.07;4.97;;;;;;;21.29;57.56;101526.72;5001538;28;20045;-79
2023/10/06 03:19:28;;;;;;;9.27;5.65;;;;;;;21.31;57.96;101529.13;5003917;28;20050;-80
2023/10/06 03:22:27;;;;;;;7.20;4.82;;;;;;;21.32;57.81;101536.25;4999994;28;20058;-80
2023/10/06 03:25:22;;;;;;;8.55;5.38;;;;;;;21.33;57.63;101535.09;4989476;28;20042;-80
2023/10/06 03:28:19;;;;;;;8.45;4.93;;;;;;;21.31;57.67;101532.69;4987991;28;20054;-80
2023/10/06 03:31:30;;;;;;;8.00;5.03;;;;;;;21.30;57.80;101525.56;4989166;28;20050;-80
2023/10/06 03:34:25;;;;;;;7.97;5.68;;;;;;;21.28;57.75;101519.56;5020940;28;20046;-79
2023/10/06 03:37:17;;;;;;;;;;;;;;;21.27;57.53;101512.47;5019563;28;20061;-80
2023/10/06 03:40:22;;;;;;;7.82;5.07;;;;;;;21.26;58.14;101518.38;5023991;28;20368;-80
2023/10/06 03:43:17;;;;;;;6.90;5.15;;;;;;;21.26;58.01;101516.41;5019197;28;20058;-79
2023/10/06 03:46:17;;;;;;;7.88;5.22;;;;;;;21.24;58.07;101518.72;5008443;28;20041;-80
2023/10/06 03:49:14;;;;;;;9.32;5.18;;;;;;;21.23;57.95;101522.66;5003162;28;20046;-80
2023/10/06 03:52:09;;;;;;;9.70;5.15;;;;;;;21.22;57.86;101526.59;5006278;28;20057;-80
2023/10/06 03:55:05;;;;;;;9.10;4.97;;;;;;;21.23;58.01;101519.88;5004863;28;20055;-80
2023/10/06 03:58:00;;;;;;;7.50;5.10;;;;;;;21.23;57.97;101522.66;5003984;28;20054;-80
2023/10/06 04:00:54;;;;;;;7.95;5.20;;;;;;;21.25;58.09;101525.06;5010464;28;20050;-79
2023/10/06 04:03:49;;;;;;;7.47;5.57;;;;;;;21.24;58.24;101529.00;5007283;28;20126;-79
2023/10/06 04:06:44;;;;;;;11.15;5.72;;;;;;;21.24;58.02;101534.53;5003833;28;20402;-80
2023/10/06 04:09:39;;;;;;;8.82;5.18;;;;;;;21.22;58.21;101540.44;5004008;28;20050;-80
2023/10/06 04:12:34;;;;;;;8.00;5.25;;;;;;;21.20;58.29;101539.19;5006509;28;20045;-80
2023/10/06 04:15:28;;;;;;;9.38;6.00;;;;;;;21.20;58.30;101540.00;5009076;28;20050;-79
2023/10/06 04:18:24;;;;;;;8.90;5.35;;;;;;;21.21;57.86;101544.38;5007284;28;20045;-79
2023/10/06 04:21:20;;;;;;;9.38;5.32;;;;;;;21.20;57.91;101550.25;4999274;28;20049;-80
2023/10/06 04:24:14;;;;;;;8.52;5.30;;;;;;;21.17;58.16;101549.03;4995575;28;20049;-80
2023/10/06 04:27:09;;;;;;;16.10;5.95;;;;;;;21.14;58.14;101552.53;4997418;28;20045;-79
2023/10/06 04:30:04;;;;;;;16.05;8.77;;;;;;;21.12;57.83;101559.56;5000471;28;20041;-79
2023/10/06 04:32:56;;;;;;;14.15;8.32;;;;;;;21.04;57.03;101546.75;4997394;28;20041;-79
2023/10/06 04:39:15;;;;;;;22.02;8.88;;;;;;;20.92;56.92;101561.56;4997149;28;20042;-80
2023/10/06 04:42:08;;;;;;;18.08;8.32;;;;;;;20.87;57.01;101559.88;4999292;28;20049;-80
2023/10/06 04:45:06;;;;;;;15.70;8.52;;;;;;;20.83;57.18;101559.00;4993545;28;20061;-86
2023/10/06 04:48:02;;;;;;;16.95;6.78;;;;;;;20.80;58.26;101564.47;4992466;28;20045;-81
2023/10/06 04:50:54;;;;;;;;;;;;;;;20.88;60.49;101561.47;4994756;28;20413;-82
2023/10/06 04:53:49;;;;;;;23.50;6.68;;;;;;;20.82;59.62;101562.16;4986666;28;19914;-82
2023/10/06 04:56:43;;;;;;;23.70;5.80;;;;;;;20.88;61.85;101572.53;4985739;28;20058;-80
2023/10/06 04:59:38;;;;;;;28.60;5.53;;;;;;;20.98;62.20;101575.91;4986085;28;20050;-81
2023/10/06 05:02:34;;;;;;;25.55;5.13;;;;;;;21.00;61.94;101571.59;4981072;28;20069;-81
2023/10/06 05:05:29;;;;;;;16.20;5.30;;;;;;;21.04;62.22;101579.94;4996194;28;20070;-81
2023/10/06 05:08:23;;;;;;;16.08;5.38;;;;;;;21.09;61.99;101580.44;4997689;28;20049;-80
2023/10/06 05:11:16;;;;;;;;;;;;;;;21.12;61.73;101585.28;4987312;28;20041;-81
2023/10/06 05:14:11;;;;;;;11.05;4.53;;;;;;;21.12;61.77;101576.97;4997686;28;20389;-81
2023/10/06 05:17:06;;;;;;;15.77;5.50;;;;;;;21.12;61.90;101576.16;4979883;28;20050;-80
2023/10/06 05:20:01;;;;;;;11.32;5.75;;;;;;;21.15;61.68;101583.75;4996482;28;20041;-81
2023/10/06 05:22:55;;;;;;;12.52;6.25;;;;;;;21.17;61.96;101593.31;4988762;28;20053;-81
2023/10/06 05:25:50;;;;;;;10.73;5.32;;;;;;;21.18;61.46;101592.13;4992728;28;20042;-80
2023/10/06 05:28:42;;;;;;;11.10;5.18;;;;;;;21.18;61.34;101588.56;4991919;28;20050;-81
2023/10/06 05:31:37;;;;;;;11.38;5.47;;;;;;;21.21;61.10;101590.59;4993574;28;20046;-82
2023/10/06 05:34:29;;;;;;;;;;;;;;;21.22;60.92;101598.53;4993046;28;20053;-81
2023/10/06 05:37:23;;;;;;;11.43;5.05;;;;;;;21.19;61.19;101593.72;4982736;28;19914;-81
2023/10/06 05:40:18;;;;;;;11.13;5.82;;;;;;;21.19;61.00;101598.44;4979855;28;20058;-81
2023/10/06 05:43:16;;;;;;;9.60;4.93;;;;;;;21.20;60.93;101595.31;4998551;28;20053;-81
2023/10/06 05:46:10;;;;;;;11.63;4.78;;;;;;;21.24;60.79;101598.16;4999554;28;20041;-81
2023/10/06 05:49:05;;;;;;;17.23;6.30;;;;;;;21.26;60.76;101604.13;4999524;28;20053;-81
2023/10/06 05:51:59;;;;;;;9.88;5.68;;;;;;;21.22;60.77;101598.53;5009181;28;20036;-82
2023/10/06 05:54:54;;;;;;;14.23;5.63;;;;;;;21.22;60.69;101604.06;4981666;28;20050;-82
2023/10/06 05:57:55;;;;;;;10.43;5.47;;;;;;;21.24;60.71;101606.44;4985185;28;20042;-81
2023/10/06 06:00:54;;;;;;;8.32;5.22;;;;;;;21.20;60.66;101608.34;4980729;28;20046;-82
2023/10/06 06:03:49;;;;;;;16.27;5.05;;;;;;;21.20;60.58;101617.47;4986624;28;20563;-82
2023/10/06 06:06:47;;;;;;;7.93;4.90;;;;;;;21.20;60.68;101614.69;4993663;28;20045;-81
2023/10/06 06:09:42;;;;;;;8.40;4.55;;;;;;;21.21;60.84;101632.91;4991965;28;20046;-82
2023/10/06 06:12:36;;;;;;;17.20;6.50;;;;;;;21.21;60.80;101623.78;4994373;28;20054;-81
2023/10/06 06:15:31;;;;;;;11.20;5.38;;;;;;;21.20;60.77;101625.75;4991251;28;20057;-81
2023/10/06 06:18:27;;;;;;;11.05;5.78;;;;;;;21.21;60.79;101637.63;5005237;28;20090;-82
2023/10/06 06:21:24;;;;;;;13.38;5.93;;;;;;;21.21;60.98;101643.16;5003909;28;20041;-82
2023/10/06 06:24:20;;;;;;;14.20;6.00;;;;;;;21.21;60.95;101645.94;4997876;28;20049;-81
2023/10/06 06:27:15;;;;;;;8.57;5.57;;;;;;;21.18;60.91;101650.22;4986032;28;20046;-81
2023/10/06 06:30:11;;;;;;;12.63;6.20;;;;;;;21.19;60.87;101651.00;4983081;28;20045;-81
2023/10/06 06:33:05;;;;;;;14.32;5.72;;;;;;;21.19;60.86;101660.13;4985913;28;20042;-81
2023/10/06 06:36:00;;;;;;;10.15;6.10;;;;;;;21.19;60.95;101660.13;4984317;28;20528;-82
2023/10/06 06:38:55;;;;;;;10.30;5.57;;;;;;;21.21;60.99;101670.81;4985482;28;20065;-81
2023/10/06 06:41:49;;;;;;;12.85;5.97;;;;;;;21.21;60.86;101663.34;4998033;28;20417;-81
2023/10/06 06:44:47;;;;;;;12.25;6.03;;;;;;;21.22;61.23;101676.00;4999722;28;20520;-81
2023/10/06 06:47:40;;;;;;;14.02;6.53;;;;;;;21.20;61.08;101675.56;5001216;28;20053;-82
2023/10/06 06:50:33;;;;;;;9.82;5.75;;;;;;;21.23;60.93;101680.34;4995418;28;20038;-81
2023/10/06 06:53:26;;;;;;;9.80;5.47;;;;;;;21.26;61.30;101676.88;4980312;28;20050;-81
2023/10/06 06:56:18;;;;;;;10.32;5.35;;;;;;;21.26;61.47;101682.41;4984552;28;20038;-81
2023/10/06 06:59:13;;;;;;;8.52;5.43;;;;;;;21.25;61.31;101678.03;4987670;28;20053;-82
2023/10/06 07:02:07;;;;;;;14.00;6.15;;;;;;;21.25;61.34;101682.75;5005321;28;20038;-81
2023/10/06 07:05:02;;;;;;;9.20;5.47;;;;;;;21.26;61.43;101681.59;5000604;28;20045;-81
2023/10/06 07:07:56;;;;;;;11.48;5.18;;;;;;;21.26;61.41;101696.25;4989248;28;20045;-81
2023/10/06 07:10:48;;;;;;;13.25;6.43;;;;;;;21.25;61.38;101697.41;4998075;28;20046;-81
2023/10/06 07:13:45;;;;;;;11.30;6.00;;;;;;;21.27;61.63;101694.28;4997195;28;20052;-81
2023/10/06 07:16:40;;;;;;;9.98;5.70;;;;;;;21.27;61.36;101694.28;5000484;28;20289;-81
2023/10/06 07:19:34;;;;;;;16.27;5.95;;;;;;;21.27;61.83;101705.34;4996693;28;20045;-81
2023/10/06 07:22:31;;;;;;;10.98;5.43;;;;;;;21.28;61.51;101701.41;4998190;28;20050;-81
2023/10/06 07:25:27;;;;;;;21.13;6.68;;;;;;;21.28;61.43;101712.50;4994935;28;20445;-81
2023/10/06 07:28:22;;;;;;;14.27;5.90;;;;;;;21.28;61.66;101716.03;4999855;28;20049;-80
2023/10/06 07:31:18;;;;;;;14.38;5.55;;;;;;;21.29;61.58;101714.88;4996368;28;20513;-81
2023/10/06 07:34:14;;;;;;;12.15;5.75;;;;;;;21.31;61.70;101718.09;5000984;28;20041;-80
2023/10/06 07:37:08;;;;;;;18.00;5.63;;;;;;;21.32;61.52;101718.88;4992435;28;20045;-81
2023/10/06 07:40:05;;;;;;;20.23;6.00;;;;;;;21.32;61.45;101716.94;4994013;28;20115;-81
2023/10/06 07:42:57;;;;;;;15.05;5.50;;;;;;;21.32;61.38;101725.22;4994517;28;20054;-82
2023/10/06 07:45:52;;;;;;;17.38;5.60;;;;;;;21.36;61.46;101728.06;4984861;28;20042;-82
2023/10/06 07:48:50;;;;;;;11.25;5.72;;;;;;;21.37;61.52;101737.97;4983015;28;20418;-82
2023/10/06 07:51:45;;;;;;;15.07;6.05;;;;;;;21.40;61.58;101739.19;4981203;28;20057;-82
2023/10/06 07:54:40;;;;;;;14.85;5.38;;;;;;;21.42;61.27;101740.44;4984093;28;20113;-81
2023/10/06 07:57:35;;;;;;;15.95;6.32;;;;;;;21.45;61.34;101741.66;4985618;28;20631;-82
2023/10/06 08:00:30;;;;;;;18.38;6.10;;;;;;;21.45;61.34;101745.25;4998420;28;20049;-82
2023/10/06 08:03:25;;;;;;;15.57;5.68;;;;;;;21.49;61.41;101745.31;4993143;28;20057;-81
2023/10/06 08:06:19;;;;;;;9.98;5.93;;;;;;;21.49;61.25;101748.88;4982794;28;20409;-82
2023/10/06 08:09:12;;;;;;;12.82;5.80;;;;;;;21.52;61.41;101750.13;4999749;28;20049;-82
2023/10/06 08:12:06;;;;;;;17.40;6.43;;;;;;;21.53;61.51;101751.75;4988580;28;20049;-81
2023/10/06 08:15:02;;;;;;;19.48;6.53;;;;;;;21.55;61.16;101757.69;5004600;28;20061;-81
2023/10/06 08:17:58;;;;;;;19.52;5.38;;;;;;;21.55;61.43;101755.72;5001782;28;20050;-81
2023/10/06 08:20:53;;;;;;;14.35;5.72;;;;;;;21.55;61.33;101757.69;4994106;28;20046;-82
2023/10/06 08:23:48;;;;;;;16.83;6.38;;;;;;;21.59;61.42;101761.34;4983088;28;20413;-81
2023/10/06 08:26:40;;;;;;;12.57;5.82;;;;;;;21.61;61.30;101759.81;4981674;28;20057;-82
2023/10/06 08:29:33;;;;;;;17.38;7.43;;;;;;;21.61;60.63;101767.31;4979868;28;20049;-82
2023/10/06 08:32:28;;;;;;;15.23;5.93;;;;;;;21.63;60.93;101773.31;4982724;28;20049;-82
2023/10/06 08:35:22;;;;;;;19.50;6.05;;;;;;;21.65;61.01;101765.41;4980194;28;20061;-82
2023/10/06 08:38:22;;;;;;;15.50;6.63;;;;;;;21.67;61.01;101779.72;4982874;28;20053;-81
2023/10/06 08:41:25;;;;;;;19.88;5.45;;;;;;;21.67;61.14;101782.47;4984712;28;20042;-82
2023/10/06 08:44:23;;;;;;;12.27;5.32;;;;;;;21.68;60.67;101773.00;5002760;28;20049;-81
2023/10/06 08:47:18;;;;;;;17.13;5.18;;;;;;;21.70;60.77;101784.50;4984210;28;20042;-82
2023/10/06 08:50:13;;;;;;;13.30;6.55;;;;;;;21.72;60.29;101776.66;4992663;28;20054;-82
2023/10/06 08:53:09;;;;;;;24.08;8.95;;;;;;;21.72;59.89;101783.00;4998289;28;20057;-82
2023/10/06 08:56:05;;;;;;;21.83;10.43;;;;;;;21.73;59.51;101784.59;5000120;28;20424;-82
2023/10/06 08:58:59;;;;;;;19.25;9.90;;;;;;;21.75;59.30;101778.69;4998698;28;20039;-82
2023/10/06 09:01:52;;;;;;;28.70;9.13;;;;;;;21.77;59.34;101788.22;4988189;28;20033;-82
2023/10/06 09:04:46;;;;;;;19.30;7.90;;;;;;;21.78;58.65;101783.50;4988803;28;20054;-83
2023/10/06 09:07:41;;;;;;;30.13;12.50;;;;;;;21.83;57.92;101787.94;4998353;28;20042;-82
2023/10/06 09:10:36;;;;;;;19.00;9.93;;;;;;;21.86;57.47;101793.53;4989625;28;20042;-82
2023/10/06 09:13:30;;;;;;;19.63;10.13;;;;;;;21.87;56.99;101789.59;4996775;28;20041;-82
2023/10/06 09:16:25;;;;;;;25.15;11.65;;;;;;;21.90;56.92;101794.41;4988409;28;20508;-81
2023/10/06 09:19:20;;;;;;;24.45;11.32;;;;;;;21.91;56.77;101790.47;4979438;28;20038;-82
2023/10/06 09:22:15;;;;;;;19.65;6.88;;;;;;;21.95;57.16;101790.56;4986981;28;20042;-81
2023/10/06 09:25:07;;;;;;;19.98;9.88;;;;;;;21.95;56.85;101791.38;4980296;28;20045;-82
2023/10/06 09:28:13;;;;;;;20.83;10.80;;;;;;;22.01;56.36;101787.13;5008572;28;20300;-82
2023/10/06 09:31:08;;;;;;;22.75;11.10;;;;;;;22.03;56.74;101793.13;5004215;28;20038;-81
2023/10/06 09:34:03;;;;;;;21.35;8.73;;;;;;;22.06;57.07;101781.31;5011472;28;20033;-81
2023/10/06 09:36:59;;;;;;;21.52;11.25;;;;;;;22.07;55.53;101785.69;5007278;28;20045;-81
2023/10/06 09:40:19;;;;;;;22.58;10.13;;;;;;;22.13;55.64;101786.19;5012348;28;20425;-81
2023/10/06 09:43:17;;;;;;;22.92;7.60;;;;;;;22.14;55.80;101785.81;4993908;28;20524;-80
2023/10/06 09:46:17;;;;;;;23.45;9.10;;;;;;;22.16;55.86;101783.47;5014820;28;20045;-81
2023/10/06 09:49:13;;;;;;;15.73;9.73;;;;;;;22.18;55.87;101778.38;5017579;28;20126;-81
2023/10/06 09:52:11;;;;;;;20.60;8.70;;;;;;;22.18;55.45;101774.78;5012927;28;20049;-81
2023/10/06 09:55:05;;;;;;;12.88;4.45;;;;;;;22.23;56.24;101779.22;5007255;28;20050;-81
2023/10/06 09:58:01;;;;;;;20.90;6.53;;;;;;;22.26;56.53;101772.94;5000262;28;20049;-82
2023/10/06 10:00:56;;;;;;;16.40;7.93;;;;;;;22.27;55.45;101769.81;4997949;28;20062;-80
2023/10/06 10:03:51;;;;;;;15.95;7.55;;;;;;;22.30;56.29;101773.81;5001401;28;20053;-81
2023/10/06 10:06:50;;;;;;;14.77;8.82;;;;;;;22.30;54.14;101766.28;4999725;28;20045;-81
2023/10/06 10:09:45;;;;;;;13.00;6.22;;;;;;;22.35;55.71;101770.75;5002611;28;20050;-81
2023/10/06 10:13:03;;;;;;;8.52;4.10;;;;;;;22.39;57.70;101761.31;5006900;28;20044;-81
2023/10/06 10:16:17;;;;;;;19.20;7.93;;;;;;;22.38;52.84;101758.91;5022320;28;20041;-82
2023/10/06 10:19:16;;;;;;;15.43;6.18;;;;;;;22.41;53.08;101755.38;5018148;28;20049;-82
2023/10/06 10:22:11;;;;;;;14.02;4.82;;;;;;;22.43;55.83;101750.28;5011397;28;20515;-81
2023/10/06 10:25:06;;;;;;;9.95;5.18;;;;;;;22.42;54.71;101737.59;5017136;28;20041;-80
2023/10/06 10:28:27;;;;;;;20.25;6.53;;;;;;;22.47;52.71;101740.03;5013538;28;20046;-80
2023/10/06 10:31:22;;;;;;;12.52;4.80;;;;;;;22.50;54.03;101740.09;5019138;28;20037;-82
2023/10/06 10:34:20;;;;;;;11.85;5.65;;;;;;;22.52;53.15;101736.97;5015704;28;20045;-82
2023/10/06 10:37:16;;;;;;;12.75;4.28;;;;;;;22.56;55.37;101746.13;5019253;28;20092;-82
2023/10/06 10:40:12;;;;;;;14.82;5.97;;;;;;;22.54;53.69;101740.97;5013683;28;20543;-81
2023/10/06 10:43:09;;;;;;;12.40;5.22;;;;;;;22.58;54.05;101725.19;5020254;28;20044;-81
2023/10/06 10:46:01;;;;;;;9.43;4.72;;;;;;;22.59;54.81;101735.13;5012815;28;20049;-81
2023/10/06 10:48:53;;;;;;;47.13;8.35;;;;;;;22.58;53.25;101729.94;5011524;28;20057;-81
2023/10/06 10:52:04;;;;;;;13.35;4.32;;;;;;;22.66;55.98;101730.84;5017858;28;20103;-82
2023/10/06 10:54:56;;;;;;;7.30;3.72;;;;;;;22.65;56.88;101723.72;5008685;28;20052;-81
2023/10/06 10:57:51;;;;;;;12.48;4.20;;;;;;;22.67;57.01;101710.25;5011060;28;20065;-81
2023/10/06 11:01:22;;;;;;;9.65;4.25;;;;;;;22.68;56.51;101709.88;5002982;28;20053;-81
2023/10/06 11:04:21;;;;;;;10.52;5.70;;;;;;;22.70;56.04;101706.75;5019988;28;20060;-81
2023/10/06 11:07:18;;;;;;;7.57;3.55;;;;;;;22.71;56.87;101705.59;5021504;28;20048;-81
2023/10/06 11:10:16;;;;;;;10.90;4.60;;;;;;;22.72;55.45;101698.88;5024964;28;20049;-82
2023/10/06 11:13:20;;;;;;;5.63;3.40;;;;;;;22.73;54.41;101692.97;5022329;28;20049;-82
2023/10/06 11:16:15;;;;;;;8.23;3.80;;;;;;;22.77;54.38;101691.03;5025060;28;20049;-82
2023/10/06 11:19:15;;;;;;;7.88;4.47;;;;;;;22.87;51.43;101689.56;5017390;28;20284;-83
2023/10/06 11:22:25;;;;;;;15.73;3.88;;;;;;;22.89;54.42;101690.81;5019987;28;20037;-81
2023/10/06 11:25:19;;;;;;;13.02;4.10;;;;;;;22.87;52.80;101682.06;5011912;28;20045;-81
2023/10/06 11:28:12;;;;;;;6.07;3.55;;;;;;;31.58;31.43;101694.69;5004915;28;20045;-86
2023/10/06 11:31:12;;;;;;;8.63;3.22;;;;;;;35.80;23.21;101704.91;5017249;28;20045;-88
2023/10/06 11:34:07;;;;;;;6.05;2.75;;;;;;;38.49;19.89;101698.19;5020489;28;20064;-88
2023/10/06 11:37:02;;;;;;;5.93;3.22;;;;;;;41.66;16.71;101706.84;5018219;28;20045;-89
2023/10/06 11:40:05;;;;;;;7.75;2.28;;;;;;;40.34;18.86;101702.88;5029942;28;20428;-86
2023/10/06 11:43:10;;;;;;;8.45;2.83;;;;;;;32.84;27.29;101680.66;5023495;28;20037;-86
2023/10/06 11:46:05;;;;;;;7.97;3.22;;;;;;;29.52;33.82;101666.69;5011994;28;20045;-84
2023/10/06 11:49:12;;;;;;;5.80;3.28;;;;;;;27.58;34.50;101666.63;5000056;28;20046;-84
2023/10/06 11:52:01;;;;;;;;;;;;;;;27.47;35.18;101663.06;5007651;28;21145;-84
2023/10/06 11:54:56;;;;;;;16.02;4.13;;;;;;;33.39;26.16;101656.91;5020895;28;19913;-87
2023/10/06 11:57:54;;;;;;;9.20;3.58;;;;;;;32.65;25.40;101659.09;5026113;28;20528;-89
2023/10/06 12:00:48;;;;;;;5.40;2.80;;;;;;;30.35;31.31;101659.38;5020298;28;20511;-88
2023/10/06 12:03:42;;;;;;;7.38;4.55;;;;;;;30.12;30.06;101657.34;5021515;28;20041;-87
2023/10/06 12:06:49;;;;;;;3.93;2.43;;;;;;;39.04;20.79;101666.41;5008216;28;20061;-87
2023/10/06 12:09:42;;;;;;;10.95;3.30;;;;;;;41.70;17.54;101656.75;5007714;28;20044;-87
2023/10/06 12:12:36;;;;;;;7.70;3.55;;;;;;;39.02;18.54;101653.94;5014544;28;20061;-87
2023/10/06 12:15:31;;;;;;;7.90;3.55;;;;;;;35.24;22.67;101648.53;5022282;28;20068;-87
2023/10/06 12:18:23;;;;;;;14.98;4.20;;;;;;;31.59;27.26;101634.41;5015974;28;20048;-87
2023/10/06 12:21:18;;;;;;;8.63;3.63;;;;;;;29.58;30.77;101633.38;5012574;28;20042;-87
2023/10/06 12:24:18;;;;;;;8.63;3.97;;;;;;;28.71;32.58;101631.28;5022383;28;20109;-86
2023/10/06 12:27:17;;;;;;;8.33;3.67;;;;;;;32.35;26.80;101639.75;5014284;28;20923;-79
2023/10/06 12:30:12;;;;;;;5.75;3.53;;;;;;;38.27;19.36;101640.84;5014875;28;20841;-79
2023/10/06 12:33:04;;;;;;;9.82;3.58;;;;;;;41.12;17.33;101654.47;5006491;28;20048;-79
2023/10/06 12:35:59;;;;;;;5.32;3.20;;;;;;;42.72;14.85;101642.38;5011374;28;20042;-79
2023/10/06 12:38:53;;;;;;;5.00;3.33;;;;;;;44.10;13.45;101651.38;5014548;28;20045;-80
2023/10/06 12:41:46;;;;;;;10.98;2.85;;;;;;;43.34;14.13;101640.31;5017454;28;20037;-80
2023/10/06 12:44:42;;;;;;;8.10;3.10;;;;;;;43.93;13.72;101642.84;5005091;28;20061;-79
2023/10/06 12:47:37;;;;;;;6.57;3.03;;;;;;;45.18;13.97;101639.50;5016268;28;20523;-80
2023/10/06 12:50:30;;;;;;;6.05;2.60;;;;;;;45.12;12.67;101637.44;5007735;28;20053;-80
2023/10/06 12:53:25;;;;;;;7.20;3.33;;;;;;;42.22;14.77;101620.09;5014663;28;20053;-77
2023/10/06 12:56:19;;;;;;;8.35;3.92;;;;;;;36.90;19.31;101608.69;5020589;28;20417;-79
2023/10/06 12:59:17;;;;;;;6.88;3.40;;;;;;;41.97;15.66;101614.56;5016881;28;20684;-80
2023/10/06 13:02:11;;;;;;;4.72;3.05;;;;;;;38.62;18.30;101608.97;5004802;28;20430;-80
2023/10/06 13:05:22;;;;;;;4.65;3.22;;;;;;;41.64;16.17;101615.94;5000078;28;20145;-80
2023/10/06 13:08:19;;;;;;;9.73;3.50;;;;;;;44.02;14.37;101615.97;4996400;28;20049;-81
2023/10/06 13:11:15;;;;;;;11.75;3.38;;;;;;;44.34;14.30;101614.25;4999315;28;20057;-80
2023/10/06 13:14:11;;;;;;;6.57;3.55;;;;;;;41.90;15.54;101607.28;4997471;28;20049;-80
2023/10/06 13:17:03;;;;;;;3.55;2.95;;;;;;;40.84;15.83;101595.03;5000830;28;20049;-82
2023/10/06 13:19:58;;;;;;;4.13;2.67;;;;;;;42.37;16.03;101596.25;5007028;28;20057;-79
2023/10/06 13:22:52;;;;;;;5.78;3.00;;;;;;;41.96;14.68;101596.63;5008674;28;20041;-79
2023/10/06 13:25:47;;;;;;;12.75;3.08;;;;;;;40.84;16.75;101594.28;5018935;28;20064;-81
2023/10/06 13:28:41;;;;;;;8.25;3.15;;;;;;;42.07;15.74;101590.16;5017003;28;20064;-80
2023/10/06 13:31:36;;;;;;;6.50;3.22;;;;;;;40.59;15.83;101579.50;5020353;28;20408;-80
2023/10/06 13:34:30;;;;;;;6.15;3.53;;;;;;;40.07;17.07;101583.59;5019234;28;20048;-80
2023/10/06 13:37:25;;;;;;;8.60;3.60;;;;;;;40.32;16.74;101585.72;5006872;28;20056;-80
2023/10/06 13:40:20;;;;;;;7.22;4.10;;;;;;;37.98;19.02;101589.59;5016485;28;20365;-80
2023/10/06 13:43:14;;;;;;;15.20;4.45;;;;;;;36.63;20.01;101573.44;5017856;28;20404;-80
2023/10/06 13:46:06;;;;;;;7.90;4.28;;;;;;;33.94;23.21;101572.88;5016532;28;20045;-80
2023/10/06 13:49:01;;;;;;;10.00;3.70;;;;;;;36.73;20.51;101575.00;5017498;28;20052;-79